Time;durP1;ratioP1;P1;durP2;ratioP2;P2;SDS_P1;SDS_P2;PMS_P1;PMS_P2;Temp;Humidity;BMP_temperature;BMP_pressure;BME280_temperature;BME280_humidity;BME280_pressure;Samples;Min_cycle;Max_cycle;Signal;HPM_P1;HPM_P2
2023/12/19 00:01:06;;;;;;;24.70;16.30;;;;;;;6.55;100.00;101098.09;104407;1272;98014;-76
2023/12/19 00:03:52;;;;;;;28.00;16.50;;;;;;;6.53;100.00;101089.25;104573;1267;101463;-77
2023/12/19 00:06:37;;;;;;;26.40;17.00;;;;;;;6.54;100.00;101089.68;104465;1273;100791;-76
2023/12/19 00:09:22;;;;;;;24.90;15.90;;;;;;;6.55;100.00;101085.36;104459;1267;97965;-76
2023/12/19 00:12:08;;;;;;;22.80;14.90;;;;;;;6.55;100.00;101083.77;104596;1268;97968;-75
2023/12/19 00:14:53;;;;;;;23.30;15.70;;;;;;;6.55;100.00;101091.09;104686;1267;98533;-76
2023/12/19 00:17:40;;;;;;;26.70;17.50;;;;;;;6.53;100.00;101085.19;104470;1281;101434;-75
2023/12/19 00:20:26;;;;;;;25.50;16.80;;;;;;;6.53;100.00;101070.33;104507;1267;100419;-77
2023/12/19 00:23:11;;;;;;;26.70;16.10;;;;;;;6.52;100.00;101065.27;104405;1268;99178;-76
2023/12/19 00:25:58;;;;;;;24.20;14.70;;;;;;;6.51;100.00;101052.52;104448;1267;98007;-76
2023/12/19 00:28:44;;;;;;;27.50;14.90;;;;;;;6.52;100.00;101043.41;104408;1268;97978;-76
2023/12/19 00:31:29;;;;;;;25.00;14.80;;;;;;;6.52;100.00;101037.75;104432;1272;101390;-76
2023/12/19 00:34:16;;;;;;;25.20;15.00;;;;;;;6.52;100.00;101045.89;104464;1270;100480;-76
2023/12/19 00:37:02;;;;;;;26.10;15.60;;;;;;;6.50;100.00;101056.41;104404;1269;97981;-76
2023/12/19 00:39:47;;;;;;;23.00;14.90;;;;;;;6.48;100.00;101063.93;104566;1273;97976;-76
2023/12/19 00:42:33;;;;;;;24.50;14.20;;;;;;;6.45;100.00;101061.84;104451;1268;98088;-76
2023/12/19 00:45:19;;;;;;;24.30;15.00;;;;;;;6.44;100.00;101064.62;104485;1273;102655;-75
2023/12/19 00:48:05;;;;;;;30.30;16.00;;;;;;;6.44;100.00;101068.73;104429;1273;101158;-76
2023/12/19 00:50:50;;;;;;;27.00;16.00;;;;;;;6.46;100.00;101060.05;104445;1273;98755;-76
2023/12/19 00:53:36;;;;;;;25.40;14.90;;;;;;;6.45;100.00;101056.41;104395;1273;98016;-76
2023/12/19 00:56:21;;;;;;;29.50;15.70;;;;;;;6.44;100.00;101053.95;104446;1273;97984;-76
2023/12/19 00:59:07;;;;;;;26.10;14.70;;;;;;;6.43;100.00;101045.52;104500;1267;101450;-76
2023/12/19 01:01:53;;;;;;;28.60;14.50;;;;;;;6.42;100.00;101039.79;104523;1273;100401;-77
2023/12/19 01:04:38;;;;;;;30.10;14.00;;;;;;;6.42;100.00;101031.66;104449;1267;97999;-76
2023/12/19 01:07:24;;;;;;;25.20;13.30;;;;;;;6.42;100.00;101038.95;104491;1268;99106;-77
2023/12/19 01:10:10;;;;;;;24.40;14.50;;;;;;;6.41;100.00;101043.52;104616;1273;98532;-76
2023/12/19 01:12:56;;;;;;;21.60;12.90;;;;;;;6.41;100.00;101048.23;104609;1268;102814;-77
2023/12/19 01:15:42;;;;;;;20.20;12.20;;;;;;;6.41;100.00;101041.67;104475;1273;100578;-77
2023/12/19 01:18:27;;;;;;;24.00;13.60;;;;;;;6.40;100.00;101038.73;104447;1273;97918;-76
2023/12/19 01:21:12;;;;;;;19.80;11.80;;;;;;;6.41;100.00;101031.55;104477;1268;98062;-76
2023/12/19 01:23:58;;;;;;;18.90;10.80;;;;;;;6.42;100.00;101033.46;104625;1270;98507;-77
2023/12/19 01:26:44;;;;;;;23.00;12.30;;;;;;;6.42;100.00;101027.24;104429;1273;102358;-76
2023/12/19 01:29:30;;;;;;;20.50;11.80;;;;;;;6.40;100.00;101028.45;104423;1267;99193;-75
2023/12/19 01:32:16;;;;;;;21.60;11.50;;;;;;;6.39;100.00;101018.80;104423;1268;98010;-75
2023/12/19 01:35:01;;;;;;;19.00;10.70;;;;;;;6.39;100.00;101012.47;104454;1270;97926;-75
2023/12/19 01:37:47;;;;;;;20.10;11.00;;;;;;;6.39;100.00;101012.23;104408;1276;99791;-75
2023/12/19 01:40:33;;;;;;;20.10;10.00;;;;;;;6.39;100.00;101019.14;104600;1272;101326;-76
2023/12/19 01:43:20;;;;;;;12.30;9.10;;;;;;;6.39;100.00;101015.83;104453;1272;99923;-75
2023/12/19 01:46:13;;;;;;;17.50;9.70;;;;;;;6.37;100.00;101009.42;104352;1273;97991;-76
2023/12/19 01:49:00;;;;;;;14.60;8.50;;;;;;;6.36;100.00;101007.11;104419;1272;97991;-76
2023/12/19 01:51:46;;;;;;;14.30;8.70;;;;;;;6.36;100.00;101003.77;104445;1267;98503;-76
2023/12/19 01:54:32;;;;;;;15.80;8.60;;;;;;;6.36;100.00;100998.19;104458;1268;101377;-75
2023/12/19 01:57:18;;;;;;;13.10;8.60;;;;;;;6.38;100.00;100990.92;104452;1268;99171;-76
2023/12/19 02:00:05;;;;;;;14.40;8.60;;;;;;;6.38;100.00;100984.14;104455;1268;99000;-75
2023/12/19 02:02:52;;;;;;;12.90;8.10;;;;;;;6.39;100.00;100978.98;104388;1274;98118;-76
2023/12/19 02:05:39;;;;;;;10.10;7.30;;;;;;;6.39;100.00;100981.74;104604;1271;98535;-76
2023/12/19 02:08:25;;;;;;;13.30;7.90;;;;;;;6.40;100.00;100968.95;104797;1273;101361;-77
2023/12/19 02:11:11;;;;;;;13.70;7.90;;;;;;;6.41;100.00;100966.27;105029;1273;99157;-77
2023/12/19 02:13:58;;;;;;;13.50;7.30;;;;;;;6.43;100.00;100961.50;104546;1281;97904;-75
2023/12/19 02:16:43;;;;;;;12.20;7.50;;;;;;;6.44;100.00;100962.41;104365;1273;99279;-75
2023/12/19 02:19:29;;;;;;;10.90;7.80;;;;;;;6.46;100.00;100970.21;104393;1274;97879;-76
2023/12/19 02:22:15;;;;;;;12.50;7.60;;;;;;;6.47;100.00;100961.94;104486;1273;102663;-76
2023/12/19 02:25:01;;;;;;;10.50;6.90;;;;;;;6.47;100.00;100952.36;104421;1268;99239;-75
2023/12/19 02:27:47;;;;;;;11.50;6.10;;;;;;;6.47;100.00;100943.70;104520;1274;99276;-77
2023/12/19 02:30:35;;;;;;;11.30;7.20;;;;;;;6.47;100.00;100937.69;104532;1268;97801;-78
2023/12/19 02:33:20;;;;;;;10.80;7.00;;;;;;;6.47;100.00;100929.20;104685;1273;99696;-75
2023/12/19 02:36:06;;;;;;;10.10;7.30;;;;;;;6.47;100.00;100923.69;104444;1268;101502;-75
2023/12/19 02:38:51;;;;;;;10.20;6.60;;;;;;;6.47;100.00;100924.88;104443;1273;99147;-75
2023/12/19 02:41:37;;;;;;;11.70;6.60;;;;;;;6.48;100.00;100925.71;104453;1272;99070;-76
2023/12/19 02:44:23;;;;;;;9.10;5.70;;;;;;;6.48;100.00;100919.43;104491;1285;98216;-76
2023/12/19 02:47:08;;;;;;;11.40;7.10;;;;;;;6.49;100.00;100915.15;104524;1273;98551;-75
2023/12/19 02:49:54;;;;;;;13.60;6.80;;;;;;;6.49;100.00;100912.80;104412;1272;102623;-76
2023/12/19 02:52:39;;;;;;;12.30;6.70;;;;;;;6.50;100.00;100905.78;104518;1272;99257;-76
2023/12/19 02:55:25;;;;;;;11.60;6.70;;;;;;;6.51;100.00;100903.59;104590;1267;98854;-77
2023/12/19 02:58:10;;;;;;;11.30;7.50;;;;;;;6.52;100.00;100901.17;104409;1270;97963;-76
2023/12/19 03:00:56;;;;;;;12.80;7.60;;;;;;;6.53;100.00;100899.95;104429;1273;98173;-77
2023/12/19 03:03:43;;;;;;;11.10;7.40;;;;;;;6.54;100.00;100892.73;104426;1270;102386;-76
2023/12/19 03:06:28;;;;;;;11.30;7.00;;;;;;;6.57;100.00;100881.85;104940;1268;99864;-76
2023/12/19 03:09:14;;;;;;;11.10;6.60;;;;;;;6.58;99.99;100873.52;104433;1268;97971;-76
2023/12/19 03:12:03;;;;;;;9.70;6.60;;;;;;;6.60;99.97;100872.63;104384;1272;98008;-76
2023/12/19 03:14:48;;;;;;;11.40;6.10;;;;;;;6.62;99.93;100877.05;104798;1273;97994;-76
2023/12/19 03:17:34;;;;;;;10.40;6.80;;;;;;;6.63;99.56;100870.55;104640;1272;101405;-76
2023/12/19 03:20:19;;;;;;;11.80;7.30;;;;;;;6.63;99.28;100860.10;104521;1273;100479;-76
2023/12/19 03:23:05;;;;;;;12.40;7.10;;;;;;;6.63;99.37;100857.45;104446;1273;99100;-76
2023/12/19 03:25:50;;;;;;;13.20;7.30;;;;;;;6.61;98.77;100848.72;104391;1272;98013;-76
2023/12/19 03:28:37;;;;;;;12.80;7.00;;;;;;;6.60;98.47;100848.01;104389;1274;98508;-77
2023/12/19 03:31:23;;;;;;;10.60;7.20;;;;;;;6.59;98.61;100867.63;104429;1273;101358;-77
2023/12/19 03:34:08;;;;;;;11.30;7.60;;;;;;;6.58;97.93;100863.45;104399;1273;99271;-76
2023/12/19 03:36:54;;;;;;;11.80;7.30;;;;;;;6.56;97.49;100874.87;104407;1273;99085;-76
2023/12/19 03:39:39;;;;;;;11.80;7.80;;;;;;;6.55;97.45;100891.59;104548;1281;97870;-76
2023/12/19 03:42:25;;;;;;;13.00;8.00;;;;;;;6.55;97.23;100891.98;104496;1272;97936;-76
2023/12/19 03:45:10;;;;;;;13.10;7.80;;;;;;;6.53;97.02;100886.33;104432;1270;101346;-76
2023/12/19 03:47:56;;;;;;;13.30;7.80;;;;;;;6.53;96.80;100880.69;104567;1273;100547;-78
2023/12/19 03:50:42;;;;;;;15.20;8.60;;;;;;;6.51;96.10;100878.02;104484;1271;99034;-76
2023/12/19 03:53:27;;;;;;;12.30;7.20;;;;;;;6.50;95.96;100879.73;104394;1281;98553;-75
2023/12/19 03:56:13;;;;;;;12.80;7.90;;;;;;;6.50;96.14;100873.31;104518;1273;98084;-76
2023/12/19 03:58:59;;;;;;;16.00;7.70;;;;;;;6.49;95.95;100873.59;104496;1272;101410;-77
2023/12/19 04:01:44;;;;;;;10.60;7.30;;;;;;;6.48;95.57;100873.34;104480;1270;100125;-76
2023/12/19 04:04:30;;;;;;;12.00;8.00;;;;;;;6.46;94.91;100872.29;104650;1273;99033;-77
2023/12/19 04:07:16;;;;;;;12.30;8.20;;;;;;;6.45;95.00;100875.94;104574;1277;98734;-77
2023/12/19 04:10:01;;;;;;;14.40;7.40;;;;;;;6.46;95.02;100882.06;104491;1270;98004;-76
2023/12/19 04:12:47;;;;;;;13.60;7.90;;;;;;;6.46;94.97;100875.17;104484;1273;101369;-76
2023/12/19 04:15:33;;;;;;;14.10;8.10;;;;;;;6.46;94.89;100868.06;104431;1272;100960;-76
2023/12/19 04:18:18;;;;;;;11.80;7.80;;;;;;;6.46;94.71;100858.32;104531;1273;99225;-75
2023/12/19 04:21:06;;;;;;;12.50;7.40;;;;;;;6.44;94.21;100849.09;104427;1273;97915;-76
2023/12/19 04:23:52;;;;;;;14.00;8.30;;;;;;;6.41;93.86;100851.92;104573;1281;99132;-75
2023/12/19 04:26:37;;;;;;;13.70;8.00;;;;;;;6.39;93.91;100854.40;104623;1273;102051;-76
2023/12/19 04:29:23;;;;;;;14.90;8.10;;;;;;;6.38;93.49;100859.27;104568;1273;100517;-76
2023/12/19 04:32:08;;;;;;;12.20;7.60;;;;;;;6.36;93.15;100870.27;104366;1270;99018;-76
2023/12/19 04:34:54;;;;;;;13.80;7.80;;;;;;;6.35;93.08;100869.35;104474;1273;98131;-76
2023/12/19 04:37:40;;;;;;;15.70;8.40;;;;;;;6.33;92.84;100870.27;104582;1273;98439;-76
2023/12/19 04:40:25;;;;;;;12.70;7.90;;;;;;;6.33;92.64;100870.64;104588;1271;102673;-76
2023/12/19 04:43:11;;;;;;;13.90;7.50;;;;;;;6.33;92.73;100871.70;104458;1273;99170;-75
2023/12/19 04:45:56;;;;;;;15.60;8.30;;;;;;;6.33;92.60;100866.58;104437;1270;98917;-76
2023/12/19 04:48:42;;;;;;;13.90;7.40;;;;;;;6.34;92.69;100860.64;104480;1268;98078;-76
2023/12/19 04:51:27;;;;;;;12.70;7.90;;;;;;;6.35;92.47;100853.59;104531;1270;98251;-76
2023/12/19 04:54:13;;;;;;;14.30;8.50;;;;;;;6.35;92.05;100841.86;104426;1272;101395;-75
2023/12/19 04:56:58;;;;;;;13.30;7.40;;;;;;;6.35;91.94;100832.98;104396;1270;99296;-76
2023/12/19 04:59:44;;;;;;;15.70;10.00;;;;;;;6.34;91.60;100823.85;104564;1272;98341;-76
2023/12/19 05:02:30;;;;;;;19.70;12.40;;;;;;;6.34;91.81;100826.71;104528;1273;99297;-76
2023/12/19 05:05:16;;;;;;;42.60;22.70;;;;;;;6.35;91.70;100834.96;104612;1270;97985;-75
2023/12/19 05:08:01;;;;;;;52.00;26.70;;;;;;;6.35;91.75;100835.77;104417;1277;101543;-76
2023/12/19 05:10:48;;;;;;;37.50;21.40;;;;;;;6.36;91.62;100840.84;104465;1273;99211;-76
2023/12/19 05:13:33;;;;;;;50.10;26.00;;;;;;;6.37;91.23;100848.91;104450;1270;99059;-77
2023/12/19 05:16:19;;;;;;;22.70;12.40;;;;;;;6.37;91.05;100859.02;104434;1272;97976;-77
2023/12/19 05:19:04;;;;;;;21.60;13.10;;;;;;;6.38;90.85;100859.82;104470;1273;99810;-77
2023/12/19 05:21:50;;;;;;;15.10;9.50;;;;;;;6.39;90.48;100860.45;104497;1274;101704;-76
2023/12/19 05:24:37;;;;;;;13.80;8.40;;;;;;;6.40;90.50;100872.06;104701;1270;99936;-76
2023/12/19 05:27:23;;;;;;;14.30;8.40;;;;;;;6.41;90.53;100869.81;104476;1273;99002;-75
2023/12/19 05:30:12;;;;;;;14.50;7.60;;;;;;;6.42;90.84;100860.09;104422;1273;98559;-76
2023/12/19 05:32:58;;;;;;;13.20;8.70;;;;;;;6.43;90.10;100852.00;104524;1267;98468;-76
2023/12/19 05:35:43;;;;;;;13.60;8.30;;;;;;;6.44;89.84;100840.97;104500;1272;101456;-77
2023/12/19 05:38:32;;;;;;;16.10;8.70;;;;;;;6.45;89.97;100836.93;104530;1269;99130;-76
2023/12/19 05:41:18;;;;;;;12.80;7.40;;;;;;;6.46;89.77;100825.52;104375;1273;99052;-77
2023/12/19 05:44:03;;;;;;;13.90;7.50;;;;;;;6.46;89.96;100817.66;104504;1272;97933;-75
2023/12/19 05:46:50;;;;;;;13.30;7.70;;;;;;;6.46;89.61;100813.59;104440;1270;99337;-76
2023/12/19 05:49:35;;;;;;;11.80;7.10;;;;;;;6.45;89.47;100808.05;104409;1270;101476;-77
2023/12/19 05:52:21;;;;;;;10.90;7.50;;;;;;;6.44;89.50;100818.18;104371;1274;100381;-75
2023/12/19 05:55:09;;;;;;;13.60;7.40;;;;;;;6.45;89.54;100817.06;104364;1270;99330;-75
2023/12/19 05:57:54;;;;;;;13.10;7.70;;;;;;;6.46;89.52;100806.00;104340;1273;97912;-75
2023/12/19 06:00:40;;;;;;;14.70;7.90;;;;;;;6.46;89.67;100809.19;104446;1273;98511;-76
2023/12/19 06:03:25;;;;;;;14.00;7.30;;;;;;;6.46;89.88;100809.83;104548;1272;102655;-76
2023/12/19 06:06:14;;;;;;;10.20;7.00;;;;;;;6.46;90.00;100815.89;104528;1273;100818;-76
2023/12/19 06:09:00;;;;;;;11.60;7.10;;;;;;;6.47;90.08;100820.41;104420;1273;99017;-77
2023/12/19 06:11:46;;;;;;;11.50;7.10;;;;;;;6.47;90.26;100827.13;104380;1273;98957;-75
2023/12/19 06:14:31;;;;;;;10.40;6.90;;;;;;;6.47;90.47;100827.52;104494;1273;99832;-76
2023/12/19 06:17:17;;;;;;;12.40;7.00;;;;;;;6.46;90.17;100820.20;104409;1270;102411;-76
2023/12/19 06:20:03;;;;;;;14.80;8.00;;;;;;;6.45;90.57;100819.53;104506;1273;100097;-77
2023/12/19 06:22:48;;;;;;;13.40;8.00;;;;;;;6.45;90.84;100821.14;104498;1273;98459;-78
2023/12/19 06:25:33;;;;;;;14.10;7.80;;;;;;;6.44;90.90;100832.38;104506;1270;97984;-76
2023/12/19 06:28:19;;;;;;;15.30;7.60;;;;;;;6.43;91.10;100837.30;104469;1274;98502;-77
2023/12/19 06:31:05;;;;;;;14.50;8.30;;;;;;;6.41;91.65;100834.00;104365;1270;101392;-77
2023/12/19 06:33:50;;;;;;;13.20;8.10;;;;;;;6.39;92.04;100825.50;104718;1267;99745;-76
2023/12/19 06:36:38;;;;;;;13.50;8.10;;;;;;;6.38;92.63;100824.55;104419;1281;98132;-76
2023/12/19 06:39:24;;;;;;;12.40;8.20;;;;;;;6.36;93.09;100824.56;106046;1269;97985;-77
2023/12/19 06:42:09;;;;;;;13.80;9.00;;;;;;;6.36;93.37;100812.67;104353;1270;97979;-76
2023/12/19 06:44:54;;;;;;;13.80;8.20;;;;;;;6.35;93.61;100806.23;104512;1273;102022;-75
2023/12/19 06:47:40;;;;;;;12.00;8.10;;;;;;;6.35;93.68;100808.58;104446;1267;100969;-76
2023/12/19 06:50:26;;;;;;;13.80;7.90;;;;;;;6.36;94.02;100805.05;104352;1268;98011;-76
2023/12/19 06:53:11;;;;;;;14.70;9.00;;;;;;;6.37;93.97;100803.71;104374;1268;97982;-76
2023/12/19 06:55:57;;;;;;;14.50;9.20;;;;;;;6.38;93.83;100804.48;104436;1267;98510;-76
2023/12/19 06:58:43;;;;;;;15.50;9.60;;;;;;;6.38;93.74;100809.77;104451;1273;101365;-77
2023/12/19 07:01:28;;;;;;;12.10;8.50;;;;;;;6.39;93.79;100812.20;104557;1270;99108;-77
2023/12/19 07:04:14;;;;;;;13.90;9.20;;;;;;;6.39;93.82;100809.40;104756;1272;98865;-78
2023/12/19 07:06:59;;;;;;;15.20;8.20;;;;;;;6.38;94.04;100815.27;104663;1273;98030;-76
2023/12/19 07:09:45;;;;;;;15.30;8.60;;;;;;;6.38;94.26;100817.95;104689;1273;97958;-77
2023/12/19 07:12:31;;;;;;;13.10;8.30;;;;;;;6.39;94.63;100821.09;104652;1270;103106;-77
2023/12/19 07:15:17;;;;;;;13.30;8.80;;;;;;;6.38;94.76;100827.59;104734;1268;99141;-77
2023/12/19 07:18:03;;;;;;;16.10;8.90;;;;;;;6.36;94.71;100818.39;104655;1268;98862;-77
2023/12/19 07:20:49;;;;;;;19.30;9.60;;;;;;;6.34;95.01;100817.51;104666;1272;97988;-77
2023/12/19 07:23:34;;;;;;;15.70;8.40;;;;;;;6.35;95.07;100820.05;104658;1271;97997;-77
2023/12/19 07:26:24;;;;;;;12.80;8.10;;;;;;;6.36;95.21;100818.69;104765;1274;102387;-78
2023/12/19 07:29:10;;;;;;;11.80;7.80;;;;;;;6.38;95.11;100826.52;104451;1277;99119;-77
2023/12/19 07:31:58;;;;;;;13.30;7.60;;;;;;;6.40;94.91;100835.52;104401;1272;99043;-77
2023/12/19 07:34:43;;;;;;;11.70;6.90;;;;;;;6.41;94.81;100831.84;104389;1268;98004;-77
2023/12/19 07:37:29;;;;;;;12.30;7.90;;;;;;;6.43;94.76;100826.83;104614;1268;98520;-76
2023/12/19 07:40:14;;;;;;;15.70;9.10;;;;;;;6.44;94.48;100824.80;104704;1268;102046;-76
2023/12/19 07:43:00;;;;;;;15.20;9.70;;;;;;;6.45;94.55;100830.04;104545;1273;99913;-77
2023/12/19 07:45:45;;;;;;;16.60;10.70;;;;;;;6.46;94.10;100826.02;104530;1272;99147;-78
2023/12/19 07:48:32;;;;;;;12.30;8.60;;;;;;;6.46;93.91;100822.06;105663;1270;98058;-83
2023/12/19 07:51:22;;;;;;;13.60;8.90;;;;;;;6.48;93.85;100812.89;105272;1268;98093;-83
2023/12/19 07:54:08;;;;;;;14.00;9.50;;;;;;;6.50;93.71;100807.02;105426;1272;101948;-77
2023/12/19 07:56:54;;;;;;;14.00;9.20;;;;;;;6.51;93.45;100806.71;104760;1270;99236;-76
2023/12/19 07:59:39;;;;;;;12.50;9.40;;;;;;;6.53;93.49;100802.42;104592;1273;97976;-75
2023/12/19 08:02:25;;;;;;;15.00;10.50;;;;;;;6.55;93.36;100797.95;104559;1270;99010;-76
2023/12/19 08:05:12;;;;;;;12.20;6.70;;;;;;;6.56;93.49;100794.42;105243;1267;99751;-75
2023/12/19 08:07:57;;;;;;;13.10;7.70;;;;;;;6.58;93.57;100798.46;104618;1267;101909;-77
2023/12/19 08:10:44;;;;;;;10.70;7.40;;;;;;;6.61;93.66;100801.20;104801;1272;100211;-77
2023/12/19 08:13:29;;;;;;;12.20;7.90;;;;;;;6.63;93.30;100798.50;104724;1273;100411;-76
2023/12/19 08:16:15;;;;;;;12.20;8.00;;;;;;;6.65;93.55;100796.70;104665;1272;98000;-76
2023/12/19 08:19:00;;;;;;;14.20;8.80;;;;;;;6.67;93.57;100802.88;104466;1273;97960;-75
2023/12/19 08:21:54;;;;;;;13.90;7.60;;;;;;;6.68;93.72;100801.70;104462;1270;101879;-76
2023/12/19 08:24:39;;;;;;;11.20;7.60;;;;;;;6.69;93.64;100798.06;104492;1271;99164;-77
2023/12/19 08:27:28;;;;;;;13.60;9.00;;;;;;;6.71;93.74;100794.49;104553;1267;98450;-76
2023/12/19 08:30:15;;;;;;;11.20;7.30;;;;;;;6.73;93.73;100789.98;104383;1273;97961;-76
2023/12/19 08:33:01;;;;;;;14.50;8.40;;;;;;;6.74;93.61;100789.58;104768;1273;98523;-76
2023/12/19 08:35:47;;;;;;;16.90;9.90;;;;;;;6.75;93.72;100784.17;104554;1273;102727;-75
2023/12/19 08:38:32;;;;;;;17.60;9.50;;;;;;;6.77;93.80;100778.55;104528;1274;100326;-77
2023/12/19 08:41:18;;;;;;;21.60;12.60;;;;;;;6.79;93.81;100787.81;104401;1270;98961;-77
2023/12/19 08:44:03;;;;;;;15.50;10.60;;;;;;;6.81;93.91;100792.21;104449;1273;98113;-76
2023/12/19 08:46:49;;;;;;;20.60;12.30;;;;;;;6.83;93.84;100790.09;104572;1267;98618;-77
2023/12/19 08:49:35;;;;;;;21.90;13.30;;;;;;;6.83;93.71;100783.08;104577;1267;102668;-76
2023/12/19 08:52:22;;;;;;;16.40;10.60;;;;;;;6.84;93.78;100768.68;104457;1273;99100;-75
2023/12/19 08:55:09;;;;;;;14.30;8.60;;;;;;;6.85;93.80;100767.09;104462;1273;98002;-77
2023/12/19 08:57:55;;;;;;;20.40;10.90;;;;;;;6.87;93.95;100763.54;104468;1267;97977;-76
2023/12/19 09:00:40;;;;;;;16.20;10.00;;;;;;;6.88;93.93;100760.38;104400;1272;98519;-77
2023/12/19 09:03:26;;;;;;;19.00;10.00;;;;;;;6.89;93.85;100759.98;104403;1272;102989;-76
2023/12/19 09:06:11;;;;;;;16.40;9.90;;;;;;;6.90;93.89;100758.80;104417;1273;99116;-76
2023/12/19 09:08:57;;;;;;;21.20;11.40;;;;;;;6.92;94.21;100753.36;104349;1268;98637;-78
2023/12/19 09:11:43;;;;;;;15.10;9.50;;;;;;;6.95;94.37;100751.35;104404;1268;98126;-76
2023/12/19 09:14:29;;;;;;;14.90;8.80;;;;;;;6.97;94.28;100752.52;104416;1272;98458;-78
2023/12/19 09:17:14;;;;;;;16.70;9.20;;;;;;;6.97;94.22;100744.17;104412;1272;103147;-77
2023/12/19 09:20:04;;;;;;;16.00;10.20;;;;;;;6.98;94.17;100749.43;104766;1274;99271;-77
2023/12/19 09:22:50;;;;;;;15.70;9.70;;;;;;;7.00;94.16;100741.23;104566;1273;97981;-77
2023/12/19 09:25:36;;;;;;;17.00;10.60;;;;;;;7.02;94.13;100743.86;104578;1268;97956;-77
2023/12/19 09:28:23;;;;;;;20.50;11.30;;;;;;;7.03;94.27;100745.45;104531;1268;98520;-77
2023/12/19 09:31:09;;;;;;;17.60;9.30;;;;;;;7.05;94.40;100738.02;104563;1273;102365;-78
2023/12/19 09:33:55;;;;;;;14.50;9.30;;;;;;;7.07;94.44;100727.86;104467;1273;100553;-77
2023/12/19 09:36:40;;;;;;;11.60;8.20;;;;;;;7.08;94.43;100722.64;104353;1267;98010;-77
2023/12/19 09:39:26;;;;;;;14.10;8.70;;;;;;;7.09;94.86;100726.08;104400;1268;99510;-77
2023/12/19 09:42:12;;;;;;;12.90;8.00;;;;;;;7.11;94.90;100730.30;104367;1273;97953;-76
2023/12/19 09:44:58;;;;;;;14.30;9.40;;;;;;;7.12;94.91;100722.45;104430;1270;102514;-77
2023/12/19 09:47:57;;;;;;;13.50;8.40;;;;;;;7.14;95.41;100718.23;104463;1268;99366;-77
2023/12/19 09:50:46;;;;;;;19.00;11.20;;;;;;;7.17;95.45;100715.78;104657;1272;100112;-77
2023/12/19 09:53:34;;;;;;;19.90;11.10;;;;;;;7.19;95.60;100712.52;104772;1273;97981;-77
2023/12/19 09:56:20;;;;;;;17.40;10.40;;;;;;;7.23;95.96;100720.25;104608;1273;97921;-77
2023/12/19 09:59:07;;;;;;;14.00;9.40;;;;;;;7.26;95.80;100718.94;104551;1267;102094;-77
2023/12/19 10:01:54;;;;;;;14.20;10.00;;;;;;;7.27;95.82;100717.44;104647;1272;99173;-77
2023/12/19 10:04:40;;;;;;;17.10;10.30;;;;;;;7.29;96.20;100718.04;104630;1268;98052;-77
2023/12/19 10:07:29;;;;;;;15.20;10.10;;;;;;;7.31;96.43;100719.42;104582;1272;98075;-78
2023/12/19 10:10:15;;;;;;;16.80;10.20;;;;;;;7.32;96.23;100719.29;104762;1273;99658;-77
2023/12/19 10:13:00;;;;;;;14.10;9.30;;;;;;;7.33;96.59;100721.36;105023;1270;101352;-77
2023/12/19 10:15:46;;;;;;;12.20;9.20;;;;;;;7.35;96.48;100727.72;104677;1268;99217;-77
2023/12/19 10:18:33;;;;;;;19.40;11.00;;;;;;;7.36;96.75;100730.45;104457;1273;98994;-77
2023/12/19 10:21:22;;;;;;;17.60;10.40;;;;;;;7.36;97.07;100719.39;104399;1270;98513;-77
2023/12/19 10:24:09;;;;;;;17.80;10.00;;;;;;;7.39;97.10;100716.20;104476;1268;97874;-76
2023/12/19 10:27:01;;;;;;;13.80;9.70;;;;;;;7.42;97.10;100714.88;104946;1272;101355;-76
2023/12/19 10:29:46;;;;;;;13.00;8.50;;;;;;;7.41;97.04;100707.19;104652;1268;100199;-76
2023/12/19 10:32:32;;;;;;;17.10;10.40;;;;;;;7.42;97.38;100701.25;104559;1268;98740;-75
2023/12/19 10:35:18;;;;;;;16.30;10.00;;;;;;;7.43;97.12;100693.27;104399;1273;98104;-76
2023/12/19 10:38:04;;;;;;;17.90;10.80;;;;;;;7.43;97.11;100684.73;104520;1270;98605;-77
2023/12/19 10:41:01;;;;;;;20.30;12.30;;;;;;;7.46;97.44;100670.94;104558;1272;101711;-77
2023/12/19 10:43:49;;;;;;;17.80;12.70;;;;;;;7.50;97.51;100664.45;104391;1273;100375;-76
2023/12/19 10:46:34;;;;;;;17.10;11.90;;;;;;;7.53;97.73;100641.77;104477;1270;99002;-76
2023/12/19 10:49:20;;;;;;;16.80;10.80;;;;;;;7.55;97.62;100632.63;104494;1270;98007;-76
2023/12/19 10:52:09;;;;;;;14.00;8.60;;;;;;;7.57;97.58;100623.16;104641;1268;97927;-77
2023/12/19 10:55:04;;;;;;;15.70;10.40;;;;;;;7.58;97.55;100620.15;105230;1270;101483;-75
2023/12/19 10:57:50;;;;;;;15.80;10.10;;;;;;;7.60;97.54;100628.64;104704;1273;99301;-77
2023/12/19 11:00:37;;;;;;;14.10;9.40;;;;;;;7.61;97.43;100625.67;104507;1274;97975;-77
2023/12/19 11:03:30;;;;;;;13.10;9.40;;;;;;;7.62;97.31;100622.38;104536;1272;98485;-76
2023/12/19 11:06:18;;;;;;;13.90;8.30;;;;;;;7.64;97.39;100624.84;104411;1272;98548;-76
2023/12/19 11:09:08;;;;;;;16.10;10.20;;;;;;;7.66;97.31;100621.98;104511;1270;102355;-76
2023/12/19 11:11:55;;;;;;;12.00;8.80;;;;;;;7.68;97.60;100615.91;105334;1270;100143;-77
2023/12/19 11:14:41;;;;;;;15.20;9.10;;;;;;;7.71;97.82;100616.57;104524;1267;97976;-77
2023/12/19 11:17:47;;;;;;;12.00;8.30;;;;;;;7.73;97.63;100620.23;104580;1273;97975;-76
2023/12/19 11:20:45;;;;;;;16.50;9.60;;;;;;;7.75;97.34;100616.70;104560;1267;98346;-76
2023/12/19 11:23:59;;;;;;;11.80;8.60;;;;;;;7.74;97.31;100610.36;105587;1273;102584;-76
2023/12/19 11:26:52;;;;;;;12.00;8.40;;;;;;;7.75;97.26;100598.34;104495;1272;99150;-77
2023/12/19 11:29:45;;;;;;;14.70;9.90;;;;;;;7.76;96.96;100595.10;104429;1272;98741;-77
2023/12/19 11:32:31;;;;;;;14.50;8.70;;;;;;;7.75;97.07;100591.84;104427;1273;98555;-76
2023/12/19 11:35:17;;;;;;;13.10;9.00;;;;;;;7.74;96.83;100587.97;104487;1270;98522;-77
2023/12/19 11:38:14;;;;;;;15.00;8.60;;;;;;;7.75;97.02;100588.04;104447;1268;101447;-76
2023/12/19 11:41:01;;;;;;;12.10;8.60;;;;;;;7.76;97.05;100582.42;104576;1267;99323;-76
2023/12/19 11:43:49;;;;;;;10.80;8.00;;;;;;;7.77;96.86;100577.94;104431;1267;98328;-76
2023/12/19 11:46:34;;;;;;;11.90;8.70;;;;;;;7.77;97.02;100576.84;104446;1272;98081;-76
2023/12/19 11:49:36;;;;;;;14.10;8.80;;;;;;;7.78;96.94;100579.92;104598;1267;98600;-76
2023/12/19 11:52:33;;;;;;;11.70;8.50;;;;;;;7.78;96.75;100577.60;104528;1267;101649;-76
2023/12/19 11:55:22;;;;;;;13.90;9.20;;;;;;;7.76;96.71;100570.67;104819;1272;100355;-76
2023/12/19 11:58:12;;;;;;;12.20;8.50;;;;;;;7.75;96.75;100561.78;104481;1277;98657;-76
2023/12/19 12:01:02;;;;;;;13.10;8.20;;;;;;;7.76;97.08;100550.60;104451;1270;97987;-77
2023/12/19 12:03:48;;;;;;;13.00;8.40;;;;;;;7.78;97.17;100541.83;104410;1273;99258;-76
2023/12/19 12:12:58;;;;;;;26.30;9.90;;;;;;;7.77;97.13;100538.64;102647;1292;636268;-77
2023/12/19 12:15:43;;;;;;;13.90;9.10;;;;;;;7.73;97.24;100542.38;104651;1272;97262;-76
2023/12/19 12:18:32;;;;;;;13.80;8.70;;;;;;;7.73;97.29;100549.02;104610;1272;95897;-75
2023/12/19 12:21:18;;;;;;;17.00;10.10;;;;;;;7.72;97.46;100543.84;104587;1267;97516;-77
2023/12/19 12:24:04;;;;;;;15.90;10.60;;;;;;;7.69;97.37;100539.52;104559;1272;100085;-76
2023/12/19 12:26:51;;;;;;;15.50;9.60;;;;;;;7.68;97.75;100538.05;104887;1266;104688;-77
2023/12/19 12:29:38;;;;;;;14.40;9.60;;;;;;;7.68;97.86;100530.23;105187;1263;95905;-77
2023/12/19 12:32:27;;;;;;;12.40;9.00;;;;;;;7.70;98.17;100520.55;105105;1267;95825;-76
2023/12/19 12:35:32;;;;;;;14.10;9.60;;;;;;;7.72;98.28;100510.39;105116;1261;97336;-76
2023/12/19 12:38:19;;;;;;;15.60;9.60;;;;;;;7.74;98.49;100499.36;105001;1265;99143;-76
2023/12/19 12:41:06;;;;;;;13.70;8.70;;;;;;;7.74;98.62;100493.29;104998;1273;97752;-77
2023/12/19 12:43:53;;;;;;;13.60;9.20;;;;;;;7.76;98.96;100488.04;105042;1265;96828;-77
2023/12/19 12:46:46;;;;;;;17.70;9.60;;;;;;;7.76;99.16;100488.20;105007;1266;97190;-77